Airfield :
LOGIN :

Register | Disclaimer

   EN    FR    IT 

 










Legend :    VFR   Marginal VFR   IFR   Intensive IFR   Very Intensive IFR
Visi :
Ceiling :
>= 8 km
>= 3000ft
5 to 8 km
1000 to 3000 ft
1500m to 5 km
500 to 1000 ft
800 to 1500m
200 to 500 ft
< 800m
< 200 ft
Symbols :   Thunderstorms  Fog  Heavy snow  Heavy precipitations  Wind > 20 kt
SIGMETs :     Misc.  Thunderstorms  Icing  Turbulence  Mountain Waves  Volcanic Ashes






- Airport Elevation : 268 ft
- IATA code : BFS


EGAA - Belfast Aldergrove

CURRENT METAR :
  • 250020Z AUTO 16002KT 9999 BKN045 04/03 Q1024

EXPIRED METARs :
  • 242320Z AUTO 15002KT 9999 NCD 04/03 Q1024
  • 242250Z AUTO 00000KT 9999 NCD 04/03 Q1024
  • 242220Z AUTO 00000KT 9999 NCD 05/05 Q1025

TAF TAF EGAA
Valid from the 25 at 00:00 until the 26 at 00:00 UTC


242257Z 2500/2524 VRB03KT 9999 SCT030
TEMPO 2500/2508 3000 BR MIFG
PROB30
TEMPO 2500/2507 0300 FG BKN000
BECMG 2506/2509 26010KT
PROB30
TEMPO 2512/2514 8000 -SHRA BKN014
BECMG 2515/2518 26016G28KT BKN014
TEMPO 2518/2521 6000 RADZ BKN007
BECMG 2520/2522 29020G30KT SCT025
BECMG 2522/2524 29010KT



MET'MAP, your aeronautical weather chart ! - Copyright ORBIFLY December 2007 - Disclaimer

ORBIFLY MET'MAP TEAM :

Programming & Development : Alexandra Zaïnal
Original concept : Baudouin d'Aumeries
Technical & hardware support : Manuel Goepfert
Assistance : Marc-Olivier Méhu




SOURCES & CREDITS :

   NOAA